Terminal Aerodrome Forecast
Issued by NWS

Home | Current Version | Previous Version | Text Only | Print | Product List | Glossary On
Versions: 1 2 3 4 5 6 7 8 9 10 11 12 13
000
FTUS45 KRIW 282323
TAFBPI
TAF
KBPI 282323Z 2900/2924 28011KT P6SM SCT080
     FM290100 33008KT P6SM FEW090
     FM290600 VRB05KT P6SM SKC
     FM291700 24006KT P6SM SCT100 BKN200
     FM292100 VRB10G16KT P6SM VCTS SCT060CB BKN100=

USA.gov is the U.S. government's official web portal to all federal, state and local government web resources and services.